Trenton, North Carolina
Current Conditions -  °F | °C
As of 12:54 AM on Wednesday 22 Oct 2014 (Local Time) from KEWN Reporting Station
Overcast Overcast  
Wind Chill: 63°   Ceiling: 7000
Heat Index: 63°   Visibility: 10mi
Dew Point: 51°   Wind: 9mph
Humidity: 65%   Direction: 340°NNW
Pressure: 29.88"   Gusts: NA
Location:  35.07°N, 77.35°W
Report Text: KEWN 220454Z AUTO 34008KT 10SM BKN070 OVC100 17/11 A2988 RMK AO2 SLP117 T01720106 402610122
Loading
Personal Weather Stations






























Interactive Weather Map
Tropical Storm Tracking
New forecast layout! Learn more

10-Day Weather Forecast

Advertisements
Track Severe Weather on mobile